sensor_id;sensor_type;location;lat;lon;timestamp;pressure;altitude;pressure_sealevel;temperature;humidity
21658;BME280;10990;48.174;9.782;2022-09-03T00:01:58;94065.97;;;15.95;100.00
21658;BME280;10990;48.174;9.782;2022-09-03T00:04:32;94048.50;;;15.81;100.00
21658;BME280;10990;48.174;9.782;2022-09-03T00:07:07;94037.66;;;15.57;100.00
21658;BME280;10990;48.174;9.782;2022-09-03T00:09:42;94012.81;;;15.57;100.00
21658;BME280;10990;48.174;9.782;2022-09-03T00:12:14;94004.06;;;15.75;100.00
21658;BME280;10990;48.174;9.782;2022-09-03T00:14:47;94002.31;;;15.62;100.00
21658;BME280;10990;48.174;9.782;2022-09-03T00:17:21;93991.84;;;15.49;100.00
21658;BME280;10990;48.174;9.782;2022-09-03T00:19:53;93975.09;;;15.60;100.00
21658;BME280;10990;48.174;9.782;2022-09-03T00:22:24;93977.47;;;15.68;100.00
21658;BME280;10990;48.174;9.782;2022-09-03T00:24:55;93973.88;;;15.81;100.00
21658;BME280;10990;48.174;9.782;2022-09-03T00:27:24;93969.34;;;15.63;100.00
21658;BME280;10990;48.174;9.782;2022-09-03T00:29:56;93965.63;;;15.82;100.00
21658;BME280;10990;48.174;9.782;2022-09-03T00:32:33;93963.34;;;15.86;100.00
21658;BME280;10990;48.174;9.782;2022-09-03T00:35:07;93972.88;;;15.94;100.00
21658;BME280;10990;48.174;9.782;2022-09-03T00:37:37;93977.03;;;15.89;100.00
21658;BME280;10990;48.174;9.782;2022-09-03T00:40:06;93982.16;;;15.91;100.00
21658;BME280;10990;48.174;9.782;2022-09-03T00:42:45;93968.44;;;15.87;100.00
21658;BME280;10990;48.174;9.782;2022-09-03T00:45:24;93971.56;;;15.66;100.00
21658;BME280;10990;48.174;9.782;2022-09-03T00:48:05;93960.94;;;15.59;100.00
21658;BME280;10990;48.174;9.782;2022-09-03T00:50:45;93959.28;;;15.83;100.00
21658;BME280;10990;48.174;9.782;2022-09-03T00:53:24;93959.44;;;15.88;100.00
21658;BME280;10990;48.174;9.782;2022-09-03T00:55:57;93969.63;;;15.73;100.00
21658;BME280;10990;48.174;9.782;2022-09-03T00:59:00;93975.41;;;15.70;100.00
21658;BME280;10990;48.174;9.782;2022-09-03T01:01:35;93987.63;;;15.78;100.00
21658;BME280;10990;48.174;9.782;2022-09-03T01:04:23;94003.84;;;15.76;100.00
21658;BME280;10990;48.174;9.782;2022-09-03T01:06:59;94008.59;;;15.74;100.00
21658;BME280;10990;48.174;9.782;2022-09-03T01:09:37;94011.53;;;15.66;100.00
21658;BME280;10990;48.174;9.782;2022-09-03T01:12:12;94019.25;;;15.74;100.00
21658;BME280;10990;48.174;9.782;2022-09-03T01:14:54;94032.03;;;15.65;100.00
21658;BME280;10990;48.174;9.782;2022-09-03T01:17:32;94033.72;;;15.60;100.00
21658;BME280;10990;48.174;9.782;2022-09-03T01:20:34;94032.44;;;15.62;100.00
21658;BME280;10990;48.174;9.782;2022-09-03T01:26:29;94037.47;;;15.77;100.00
21658;BME280;10990;48.174;9.782;2022-09-03T01:29:09;94032.88;;;15.84;100.00
21658;BME280;10990;48.174;9.782;2022-09-03T01:31:49;94038.38;;;15.71;100.00
21658;BME280;10990;48.174;9.782;2022-09-03T01:34:28;94018.56;;;15.60;100.00
21658;BME280;10990;48.174;9.782;2022-09-03T01:37:07;94020.97;;;15.43;100.00
21658;BME280;10990;48.174;9.782;2022-09-03T01:39:46;94012.88;;;15.75;100.00
21658;BME280;10990;48.174;9.782;2022-09-03T01:42:24;94004.44;;;15.78;100.00
21658;BME280;10990;48.174;9.782;2022-09-03T01:45:07;93989.09;;;15.55;100.00
21658;BME280;10990;48.174;9.782;2022-09-03T01:47:51;93975.03;;;15.23;100.00
21658;BME280;10990;48.174;9.782;2022-09-03T01:50:30;93923.78;;;15.28;100.00
21658;BME280;10990;48.174;9.782;2022-09-03T01:53:06;93913.28;;;15.14;100.00
21658;BME280;10990;48.174;9.782;2022-09-03T01:55:45;93886.06;;;15.31;100.00
21658;BME280;10990;48.174;9.782;2022-09-03T01:58:26;93881.84;;;15.23;100.00
21658;BME280;10990;48.174;9.782;2022-09-03T02:01:00;93872.88;;;15.17;100.00
21658;BME280;10990;48.174;9.782;2022-09-03T02:03:33;93871.47;;;14.96;100.00
21658;BME280;10990;48.174;9.782;2022-09-03T02:06:02;93865.28;;;15.02;100.00
21658;BME280;10990;48.174;9.782;2022-09-03T02:08:32;93865.09;;;14.79;100.00
21658;BME280;10990;48.174;9.782;2022-09-03T02:11:00;93851.47;;;14.69;100.00
21658;BME280;10990;48.174;9.782;2022-09-03T02:13:29;93846.00;;;14.64;100.00
21658;BME280;10990;48.174;9.782;2022-09-03T02:16:06;93821.06;;;14.58;100.00
21658;BME280;10990;48.174;9.782;2022-09-03T02:18:40;93806.03;;;14.45;100.00
21658;BME280;10990;48.174;9.782;2022-09-03T02:21:12;93793.47;;;14.77;100.00
21658;BME280;10990;48.174;9.782;2022-09-03T02:23:41;93792.81;;;14.82;100.00
21658;BME280;10990;48.174;9.782;2022-09-03T02:26:11;93808.19;;;14.80;100.00
21658;BME280;10990;48.174;9.782;2022-09-03T02:28:38;93794.88;;;14.80;100.00
21658;BME280;10990;48.174;9.782;2022-09-03T02:31:07;93792.06;;;14.75;100.00
21658;BME280;10990;48.174;9.782;2022-09-03T02:33:36;93793.19;;;14.67;100.00
21658;BME280;10990;48.174;9.782;2022-09-03T02:36:06;93780.16;;;14.77;100.00
21658;BME280;10990;48.174;9.782;2022-09-03T02:38:34;93774.09;;;14.89;100.00
21658;BME280;10990;48.174;9.782;2022-09-03T02:41:03;93789.91;;;14.84;100.00
21658;BME280;10990;48.174;9.782;2022-09-03T02:43:35;93779.19;;;14.72;100.00
21658;BME280;10990;48.174;9.782;2022-09-03T02:46:09;93759.78;;;14.90;100.00
21658;BME280;10990;48.174;9.782;2022-09-03T02:48:38;93773.03;;;15.08;100.00
21658;BME280;10990;48.174;9.782;2022-09-03T02:51:05;93787.56;;;14.94;100.00
21658;BME280;10990;48.174;9.782;2022-09-03T02:53:32;93787.41;;;14.89;100.00
21658;BME280;10990;48.174;9.782;2022-09-03T02:56:00;93767.66;;;15.15;100.00
21658;BME280;10990;48.174;9.782;2022-09-03T02:58:28;93786.56;;;15.25;100.00
21658;BME280;10990;48.174;9.782;2022-09-03T03:00:56;93822.09;;;15.19;100.00
21658;BME280;10990;48.174;9.782;2022-09-03T03:03:25;93814.44;;;15.22;100.00
21658;BME280;10990;48.174;9.782;2022-09-03T03:05:53;93829.09;;;14.95;100.00
21658;BME280;10990;48.174;9.782;2022-09-03T03:08:23;93799.44;;;14.91;100.00
21658;BME280;10990;48.174;9.782;2022-09-03T03:10:54;93775.66;;;14.96;100.00
21658;BME280;10990;48.174;9.782;2022-09-03T03:13:24;93759.03;;;15.01;100.00
21658;BME280;10990;48.174;9.782;2022-09-03T03:15:55;93759.53;;;15.10;100.00
21658;BME280;10990;48.174;9.782;2022-09-03T03:18:22;93763.81;;;15.11;100.00
21658;BME280;10990;48.174;9.782;2022-09-03T03:20:51;93749.25;;;14.95;100.00
21658;BME280;10990;48.174;9.782;2022-09-03T03:23:19;93735.88;;;15.01;100.00
21658;BME280;10990;48.174;9.782;2022-09-03T03:25:46;93723.06;;;15.10;100.00
21658;BME280;10990;48.174;9.782;2022-09-03T03:28:13;93717.84;;;14.85;100.00
21658;BME280;10990;48.174;9.782;2022-09-03T03:30:43;93686.44;;;15.06;100.00
21658;BME280;10990;48.174;9.782;2022-09-03T03:33:12;93681.53;;;15.21;100.00
21658;BME280;10990;48.174;9.782;2022-09-03T03:35:40;93699.00;;;15.17;100.00
21658;BME280;10990;48.174;9.782;2022-09-03T03:38:09;93712.00;;;15.25;100.00
21658;BME280;10990;48.174;9.782;2022-09-03T03:40:36;93721.09;;;15.17;100.00
21658;BME280;10990;48.174;9.782;2022-09-03T03:43:04;93727.72;;;15.15;100.00
21658;BME280;10990;48.174;9.782;2022-09-03T03:45:31;93745.06;;;15.17;100.00
21658;BME280;10990;48.174;9.782;2022-09-03T03:47:59;93724.31;;;15.08;100.00
21658;BME280;10990;48.174;9.782;2022-09-03T03:50:26;93713.56;;;15.14;100.00
21658;BME280;10990;48.174;9.782;2022-09-03T03:52:53;93694.16;;;15.25;100.00
21658;BME280;10990;48.174;9.782;2022-09-03T03:55:22;93684.84;;;15.35;100.00
21658;BME280;10990;48.174;9.782;2022-09-03T03:57:49;93684.53;;;15.13;100.00
21658;BME280;10990;48.174;9.782;2022-09-03T04:00:17;93669.19;;;14.96;100.00
21658;BME280;10990;48.174;9.782;2022-09-03T04:02:44;93657.56;;;14.91;100.00
21658;BME280;10990;48.174;9.782;2022-09-03T04:05:13;93624.59;;;14.92;100.00
21658;BME280;10990;48.174;9.782;2022-09-03T04:07:40;93614.56;;;15.06;100.00
21658;BME280;10990;48.174;9.782;2022-09-03T04:10:09;93613.16;;;15.03;100.00
21658;BME280;10990;48.174;9.782;2022-09-03T04:12:38;93598.03;;;15.04;100.00
21658;BME280;10990;48.174;9.782;2022-09-03T04:15:05;93594.81;;;14.83;100.00
21658;BME280;10990;48.174;9.782;2022-09-03T04:17:32;93574.88;;;14.92;100.00
21658;BME280;10990;48.174;9.782;2022-09-03T04:20:00;93493.03;;;14.88;100.00
21658;BME280;10990;48.174;9.782;2022-09-03T04:22:27;93445.94;;;15.00;100.00
21658;BME280;10990;48.174;9.782;2022-09-03T04:24:55;93430.53;;;15.14;100.00
21658;BME280;10990;48.174;9.782;2022-09-03T04:27:22;93397.56;;;14.91;100.00
21658;BME280;10990;48.174;9.782;2022-09-03T04:29:51;93367.16;;;14.87;100.00
21658;BME280;10990;48.174;9.782;2022-09-03T04:32:18;93334.59;;;15.09;100.00
21658;BME280;10990;48.174;9.782;2022-09-03T04:35:02;93368.06;;;14.81;100.00
21658;BME280;10990;48.174;9.782;2022-09-03T04:37:31;93353.50;;;14.95;100.00
21658;BME280;10990;48.174;9.782;2022-09-03T04:39:59;93342.22;;;15.17;100.00
21658;BME280;10990;48.174;9.782;2022-09-03T04:42:26;93347.63;;;15.34;100.00
21658;BME280;10990;48.174;9.782;2022-09-03T04:44:55;93369.41;;;15.31;100.00
21658;BME280;10990;48.174;9.782;2022-09-03T04:47:22;93371.69;;;15.39;100.00
21658;BME280;10990;48.174;9.782;2022-09-03T04:49:50;93368.22;;;15.38;100.00
21658;BME280;10990;48.174;9.782;2022-09-03T04:52:18;93358.63;;;15.37;100.00
21658;BME280;10990;48.174;9.782;2022-09-03T04:54:46;93347.88;;;15.32;100.00
21658;BME280;10990;48.174;9.782;2022-09-03T04:57:13;93321.72;;;15.29;100.00
21658;BME280;10990;48.174;9.782;2022-09-03T04:59:40;93308.31;;;15.12;100.00
21658;BME280;10990;48.174;9.782;2022-09-03T05:02:08;93219.03;;;15.21;100.00
21658;BME280;10990;48.174;9.782;2022-09-03T05:04:36;93171.91;;;15.22;100.00
21658;BME280;10990;48.174;9.782;2022-09-03T05:07:04;93154.19;;;14.99;100.00
21658;BME280;10990;48.174;9.782;2022-09-03T05:09:31;93108.59;;;15.24;100.00
21658;BME280;10990;48.174;9.782;2022-09-03T05:11:58;93103.00;;;15.25;100.00
21658;BME280;10990;48.174;9.782;2022-09-03T05:14:28;93090.53;;;15.26;100.00
21658;BME280;10990;48.174;9.782;2022-09-03T05:16:55;93065.00;;;15.30;100.00
21658;BME280;10990;48.174;9.782;2022-09-03T05:19:25;93065.25;;;15.29;100.00
21658;BME280;10990;48.174;9.782;2022-09-03T05:21:52;93075.25;;;15.21;100.00
21658;BME280;10990;48.174;9.782;2022-09-03T05:24:19;93057.25;;;15.29;100.00
21658;BME280;10990;48.174;9.782;2022-09-03T05:26:47;93047.19;;;15.14;100.00
21658;BME280;10990;48.174;9.782;2022-09-03T05:29:14;93012.66;;;15.19;100.00
21658;BME280;10990;48.174;9.782;2022-09-03T05:31:44;92997.75;;;15.18;100.00
21658;BME280;10990;48.174;9.782;2022-09-03T05:34:11;92974.00;;;15.33;100.00
21658;BME280;10990;48.174;9.782;2022-09-03T05:36:39;92969.94;;;15.47;100.00
21658;BME280;10990;48.174;9.782;2022-09-03T05:39:06;92995.19;;;15.45;100.00
21658;BME280;10990;48.174;9.782;2022-09-03T05:41:34;93026.91;;;15.46;100.00
21658;BME280;10990;48.174;9.782;2022-09-03T05:44:01;93053.28;;;15.48;100.00
21658;BME280;10990;48.174;9.782;2022-09-03T05:46:31;93067.19;;;15.50;100.00
21658;BME280;10990;48.174;9.782;2022-09-03T05:49:03;93063.16;;;15.47;100.00
21658;BME280;10990;48.174;9.782;2022-09-03T05:51:32;93083.25;;;15.38;100.00
21658;BME280;10990;48.174;9.782;2022-09-03T05:54:01;93078.44;;;15.69;100.00
21658;BME280;10990;48.174;9.782;2022-09-03T05:56:31;93103.66;;;15.66;100.00
21658;BME280;10990;48.174;9.782;2022-09-03T05:59:02;93104.72;;;15.82;100.00
21658;BME280;10990;48.174;9.782;2022-09-03T06:01:32;93098.28;;;15.78;100.00
21658;BME280;10990;48.174;9.782;2022-09-03T06:04:02;93082.91;;;16.02;100.00
21658;BME280;10990;48.174;9.782;2022-09-03T06:06:31;93082.47;;;15.94;100.00
21658;BME280;10990;48.174;9.782;2022-09-03T06:09:02;93076.00;;;16.06;100.00
21658;BME280;10990;48.174;9.782;2022-09-03T06:11:33;93072.34;;;16.12;100.00
21658;BME280;10990;48.174;9.782;2022-09-03T06:14:03;93079.34;;;16.19;100.00
21658;BME280;10990;48.174;9.782;2022-09-03T06:16:35;93077.31;;;16.26;100.00
21658;BME280;10990;48.174;9.782;2022-09-03T06:19:05;93082.22;;;16.34;100.00
21658;BME280;10990;48.174;9.782;2022-09-03T06:21:34;93087.19;;;16.25;100.00
21658;BME280;10990;48.174;9.782;2022-09-03T06:24:03;93080.59;;;16.33;100.00
21658;BME280;10990;48.174;9.782;2022-09-03T06:26:30;93073.66;;;16.32;100.00
21658;BME280;10990;48.174;9.782;2022-09-03T06:28:57;93052.38;;;16.37;100.00
21658;BME280;10990;48.174;9.782;2022-09-03T06:31:26;93028.38;;;16.37;100.00
21658;BME280;10990;48.174;9.782;2022-09-03T06:33:53;92997.78;;;16.45;100.00
21658;BME280;10990;48.174;9.782;2022-09-03T06:36:22;92976.34;;;16.62;100.00
21658;BME280;10990;48.174;9.782;2022-09-03T06:38:52;92964.38;;;16.64;100.00
21658;BME280;10990;48.174;9.782;2022-09-03T06:41:22;92935.09;;;16.74;100.00
21658;BME280;10990;48.174;9.782;2022-09-03T06:43:52;92870.75;;;16.71;100.00
21658;BME280;10990;48.174;9.782;2022-09-03T06:46:21;92796.78;;;17.03;100.00
21658;BME280;10990;48.174;9.782;2022-09-03T06:48:49;92791.41;;;16.98;100.00
21658;BME280;10990;48.174;9.782;2022-09-03T06:51:19;92755.75;;;17.30;100.00
21658;BME280;10990;48.174;9.782;2022-09-03T06:53:48;92756.06;;;17.39;100.00
21658;BME280;10990;48.174;9.782;2022-09-03T06:56:16;92750.97;;;17.32;100.00
21658;BME280;10990;48.174;9.782;2022-09-03T06:58:46;92736.00;;;17.26;100.00
21658;BME280;10990;48.174;9.782;2022-09-03T07:01:16;92686.31;;;17.35;100.00
21658;BME280;10990;48.174;9.782;2022-09-03T07:03:46;92638.25;;;17.61;100.00
21658;BME280;10990;48.174;9.782;2022-09-03T07:06:16;92617.94;;;17.75;100.00
21658;BME280;10990;48.174;9.782;2022-09-03T07:08:44;92605.13;;;17.62;100.00
21658;BME280;10990;48.174;9.782;2022-09-03T07:11:15;92593.63;;;17.56;100.00
21658;BME280;10990;48.174;9.782;2022-09-03T07:13:47;92562.63;;;17.70;100.00
21658;BME280;10990;48.174;9.782;2022-09-03T07:16:17;92569.28;;;17.73;100.00
21658;BME280;10990;48.174;9.782;2022-09-03T07:18:45;92568.22;;;17.95;100.00
21658;BME280;10990;48.174;9.782;2022-09-03T07:21:15;92569.81;;;18.11;100.00
21658;BME280;10990;48.174;9.782;2022-09-03T07:23:43;92605.38;;;18.11;100.00
21658;BME280;10990;48.174;9.782;2022-09-03T07:26:13;92619.75;;;18.31;100.00
21658;BME280;10990;48.174;9.782;2022-09-03T07:28:42;92640.78;;;18.68;100.00
21658;BME280;10990;48.174;9.782;2022-09-03T07:31:14;92629.44;;;18.92;100.00
21658;BME280;10990;48.174;9.782;2022-09-03T07:33:43;92675.94;;;19.21;100.00
21658;BME280;10990;48.174;9.782;2022-09-03T07:36:14;92778.91;;;19.60;100.00
21658;BME280;10990;48.174;9.782;2022-09-03T07:38:43;92890.16;;;19.67;100.00
21658;BME280;10990;48.174;9.782;2022-09-03T07:41:11;92986.66;;;19.88;100.00
21658;BME280;10990;48.174;9.782;2022-09-03T07:43:41;93080.00;;;19.86;100.00
21658;BME280;10990;48.174;9.782;2022-09-03T07:46:13;93142.47;;;20.02;100.00
21658;BME280;10990;48.174;9.782;2022-09-03T07:48:45;93236.91;;;19.88;100.00
21658;BME280;10990;48.174;9.782;2022-09-03T07:51:14;93298.03;;;19.76;100.00
21658;BME280;10990;48.174;9.782;2022-09-03T07:53:42;93347.31;;;19.65;100.00
21658;BME280;10990;48.174;9.782;2022-09-03T07:56:10;93371.34;;;19.44;100.00
21658;BME280;10990;48.174;9.782;2022-09-03T07:58:38;93408.97;;;19.17;100.00
21658;BME280;10990;48.174;9.782;2022-09-03T08:01:07;93444.50;;;19.02;100.00
21658;BME280;10990;48.174;9.782;2022-09-03T08:03:37;93484.56;;;18.87;100.00
21658;BME280;10990;48.174;9.782;2022-09-03T08:06:06;93499.22;;;19.07;100.00
21658;BME280;10990;48.174;9.782;2022-09-03T08:08:35;93515.88;;;19.14;100.00
21658;BME280;10990;48.174;9.782;2022-09-03T08:11:04;93523.63;;;19.10;100.00
21658;BME280;10990;48.174;9.782;2022-09-03T08:13:32;93516.19;;;19.22;100.00
21658;BME280;10990;48.174;9.782;2022-09-03T08:16:00;93547.78;;;19.15;100.00
21658;BME280;10990;48.174;9.782;2022-09-03T08:18:30;93579.19;;;19.25;100.00
21658;BME280;10990;48.174;9.782;2022-09-03T08:21:05;93595.56;;;19.29;100.00
21658;BME280;10990;48.174;9.782;2022-09-03T08:23:35;93620.59;;;19.39;100.00
21658;BME280;10990;48.174;9.782;2022-09-03T08:26:03;93647.06;;;19.31;100.00
21658;BME280;10990;48.174;9.782;2022-09-03T08:28:30;93651.28;;;19.48;100.00
21658;BME280;10990;48.174;9.782;2022-09-03T08:31:04;93676.97;;;19.44;100.00
21658;BME280;10990;48.174;9.782;2022-09-03T08:33:32;93700.94;;;19.56;100.00
21658;BME280;10990;48.174;9.782;2022-09-03T08:36:10;93714.94;;;19.90;100.00
21658;BME280;10990;48.174;9.782;2022-09-03T08:38:39;93744.31;;;20.34;100.00
21658;BME280;10990;48.174;9.782;2022-09-03T08:41:11;93832.81;;;21.31;100.00
21658;BME280;10990;48.174;9.782;2022-09-03T08:43:58;93905.44;;;22.57;100.00
21658;BME280;10990;48.174;9.782;2022-09-03T08:46:42;94045.47;;;23.30;100.00
21658;BME280;10990;48.174;9.782;2022-09-03T08:49:16;94167.84;;;22.51;100.00
21658;BME280;10990;48.174;9.782;2022-09-03T08:51:48;94170.13;;;22.74;100.00
21658;BME280;10990;48.174;9.782;2022-09-03T08:54:17;94197.97;;;22.10;100.00
21658;BME280;10990;48.174;9.782;2022-09-03T08:56:47;94200.81;;;21.99;100.00
21658;BME280;10990;48.174;9.782;2022-09-03T08:59:14;94182.56;;;21.74;100.00
21658;BME280;10990;48.174;9.782;2022-09-03T09:01:47;94179.81;;;21.63;100.00
21658;BME280;10990;48.174;9.782;2022-09-03T09:04:23;94170.75;;;22.07;100.00
21658;BME280;10990;48.174;9.782;2022-09-03T09:06:58;94202.41;;;22.22;100.00
21658;BME280;10990;48.174;9.782;2022-09-03T09:09:36;94229.91;;;23.03;100.00
21658;BME280;10990;48.174;9.782;2022-09-03T09:12:15;94263.97;;;23.25;100.00
21658;BME280;10990;48.174;9.782;2022-09-03T09:14:54;94328.78;;;23.88;100.00
21658;BME280;10990;48.174;9.782;2022-09-03T09:17:40;94343.63;;;23.96;100.00
21658;BME280;10990;48.174;9.782;2022-09-03T09:20:18;94402.06;;;23.22;100.00
21658;BME280;10990;48.174;9.782;2022-09-03T09:22:55;94400.16;;;22.58;100.00
21658;BME280;10990;48.174;9.782;2022-09-03T09:25:24;94387.97;;;22.50;100.00
21658;BME280;10990;48.174;9.782;2022-09-03T09:27:56;94377.16;;;22.77;100.00
21658;BME280;10990;48.174;9.782;2022-09-03T09:30:25;94395.59;;;24.28;100.00
21658;BME280;10990;48.174;9.782;2022-09-03T09:32:51;94445.28;;;24.22;100.00
21658;BME280;10990;48.174;9.782;2022-09-03T09:35:19;94509.75;;;24.51;100.00
21658;BME280;10990;48.174;9.782;2022-09-03T09:37:48;94497.16;;;24.19;100.00
21658;BME280;10990;48.174;9.782;2022-09-03T09:40:26;94507.88;;;24.04;100.00
21658;BME280;10990;48.174;9.782;2022-09-03T09:43:10;94499.41;;;24.43;100.00
21658;BME280;10990;48.174;9.782;2022-09-03T09:45:42;94509.94;;;25.43;100.00
21658;BME280;10990;48.174;9.782;2022-09-03T09:48:17;94694.69;;;26.47;100.00
21658;BME280;10990;48.174;9.782;2022-09-03T09:50:46;94901.41;;;26.65;100.00
21658;BME280;10990;48.174;9.782;2022-09-03T09:53:13;94942.25;;;26.43;100.00
21658;BME280;10990;48.174;9.782;2022-09-03T09:55:54;95040.38;;;27.02;100.00
21658;BME280;10990;48.174;9.782;2022-09-03T09:58:25;95026.88;;;26.45;100.00
21658;BME280;10990;48.174;9.782;2022-09-03T10:00:56;94991.19;;;25.31;100.00
21658;BME280;10990;48.174;9.782;2022-09-03T10:03:25;94912.09;;;23.88;100.00
21658;BME280;10990;48.174;9.782;2022-09-03T10:06:00;94776.91;;;24.32;100.00
21658;BME280;10990;48.174;9.782;2022-09-03T10:08:49;94719.22;;;24.16;100.00
21658;BME280;10990;48.174;9.782;2022-09-03T10:11:20;94715.16;;;24.19;100.00
21658;BME280;10990;48.174;9.782;2022-09-03T10:13:50;94710.66;;;23.70;100.00
21658;BME280;10990;48.174;9.782;2022-09-03T10:16:26;94678.88;;;24.84;100.00
21658;BME280;10990;48.174;9.782;2022-09-03T10:19:01;94763.66;;;24.63;100.00
21658;BME280;10990;48.174;9.782;2022-09-03T10:21:37;94766.97;;;24.75;100.00
21658;BME280;10990;48.174;9.782;2022-09-03T10:24:20;94820.22;;;25.07;100.00
21658;BME280;10990;48.174;9.782;2022-09-03T10:26:55;94809.34;;;24.59;100.00
21658;BME280;10990;48.174;9.782;2022-09-03T10:29:23;94807.53;;;25.55;100.00
21658;BME280;10990;48.174;9.782;2022-09-03T10:32:03;94922.59;;;27.03;100.00
21658;BME280;10990;48.174;9.782;2022-09-03T10:34:41;95031.22;;;27.39;100.00
21658;BME280;10990;48.174;9.782;2022-09-03T10:37:18;95023.28;;;27.07;100.00
21658;BME280;10990;48.174;9.782;2022-09-03T10:40:00;95014.75;;;26.63;100.00
21658;BME280;10990;48.174;9.782;2022-09-03T10:42:40;94993.69;;;26.90;100.00
21658;BME280;10990;48.174;9.782;2022-09-03T10:45:18;95023.09;;;27.80;100.00
21658;BME280;10990;48.174;9.782;2022-09-03T10:48:18;95074.41;;;28.23;100.00
21658;BME280;10990;48.174;9.782;2022-09-03T10:50:52;95123.34;;;28.43;100.00
21658;BME280;10990;48.174;9.782;2022-09-03T10:53:39;95106.78;;;28.09;100.00
21658;BME280;10990;48.174;9.782;2022-09-03T10:56:16;95157.31;;;27.74;100.00
21658;BME280;10990;48.174;9.782;2022-09-03T10:58:59;95112.50;;;27.87;100.00
21658;BME280;10990;48.174;9.782;2022-09-03T11:01:36;95140.38;;;27.21;100.00
21658;BME280;10990;48.174;9.782;2022-09-03T11:04:21;95099.50;;;26.37;100.00
21658;BME280;10990;48.174;9.782;2022-09-03T11:06:53;95022.53;;;26.44;100.00
21658;BME280;10990;48.174;9.782;2022-09-03T11:09:24;95058.97;;;26.10;100.00
21658;BME280;10990;48.174;9.782;2022-09-03T11:11:56;95055.63;;;25.98;100.00
21658;BME280;10990;48.174;9.782;2022-09-03T11:14:36;95001.03;;;26.27;100.00
21658;BME280;10990;48.174;9.782;2022-09-03T11:17:09;94949.81;;;26.35;100.00
21658;BME280;10990;48.174;9.782;2022-09-03T11:19:44;94952.91;;;26.59;100.00
21658;BME280;10990;48.174;9.782;2022-09-03T11:22:16;95009.88;;;26.02;100.00
21658;BME280;10990;48.174;9.782;2022-09-03T11:24:50;95008.00;;;26.12;100.00
21658;BME280;10990;48.174;9.782;2022-09-03T11:27:29;95021.34;;;25.82;100.00
21658;BME280;10990;48.174;9.782;2022-09-03T11:30:02;94988.44;;;24.98;100.00
21658;BME280;10990;48.174;9.782;2022-09-03T11:32:44;94924.31;;;24.67;100.00
21658;BME280;10990;48.174;9.782;2022-09-03T11:35:24;94926.41;;;24.37;100.00
21658;BME280;10990;48.174;9.782;2022-09-03T11:37:57;94892.38;;;23.48;100.00
21658;BME280;10990;48.174;9.782;2022-09-03T11:40:31;94479.47;;;21.57;100.00
21658;BME280;10990;48.174;9.782;2022-09-03T11:43:05;94237.69;;;20.44;100.00
21658;BME280;10990;48.174;9.782;2022-09-03T11:45:36;94144.56;;;20.28;100.00
21658;BME280;10990;48.174;9.782;2022-09-03T11:48:17;94094.25;;;20.62;100.00
21658;BME280;10990;48.174;9.782;2022-09-03T11:50:52;94060.13;;;20.41;100.00
21658;BME280;10990;48.174;9.782;2022-09-03T11:53:24;94010.25;;;20.67;100.00
21658;BME280;10990;48.174;9.782;2022-09-03T11:55:58;93979.97;;;21.03;100.00
21658;BME280;10990;48.174;9.782;2022-09-03T11:58:29;93975.81;;;21.55;100.00
21658;BME280;10990;48.174;9.782;2022-09-03T12:01:01;94005.00;;;21.79;100.00
21658;BME280;10990;48.174;9.782;2022-09-03T12:03:42;94060.78;;;22.31;100.00
21658;BME280;10990;48.174;9.782;2022-09-03T12:06:22;94090.81;;;22.50;100.00
21658;BME280;10990;48.174;9.782;2022-09-03T12:09:12;94099.88;;;22.96;100.00
21658;BME280;10990;48.174;9.782;2022-09-03T12:11:54;94109.00;;;22.90;100.00
21658;BME280;10990;48.174;9.782;2022-09-03T12:14:30;94111.00;;;23.15;100.00
21658;BME280;10990;48.174;9.782;2022-09-03T12:17:17;94110.78;;;23.68;100.00
21658;BME280;10990;48.174;9.782;2022-09-03T12:19:51;94151.00;;;23.44;100.00
21658;BME280;10990;48.174;9.782;2022-09-03T12:22:21;94188.34;;;22.57;100.00
21658;BME280;10990;48.174;9.782;2022-09-03T12:24:48;94202.81;;;22.41;100.00
21658;BME280;10990;48.174;9.782;2022-09-03T12:27:21;94225.69;;;22.38;100.00
21658;BME280;10990;48.174;9.782;2022-09-03T12:29:51;94247.28;;;22.43;100.00
21658;BME280;10990;48.174;9.782;2022-09-03T12:32:23;94268.31;;;22.46;100.00
21658;BME280;10990;48.174;9.782;2022-09-03T12:34:54;94297.84;;;22.68;100.00
21658;BME280;10990;48.174;9.782;2022-09-03T12:37:24;94320.38;;;22.89;100.00
21658;BME280;10990;48.174;9.782;2022-09-03T12:39:52;94325.13;;;22.77;100.00
21658;BME280;10990;48.174;9.782;2022-09-03T12:42:25;94306.75;;;23.01;100.00
21658;BME280;10990;48.174;9.782;2022-09-03T12:45:05;94312.97;;;23.07;100.00
21658;BME280;10990;48.174;9.782;2022-09-03T12:47:37;94366.78;;;22.59;100.00
21658;BME280;10990;48.174;9.782;2022-09-03T12:50:07;94361.75;;;23.05;100.00
21658;BME280;10990;48.174;9.782;2022-09-03T12:52:37;94389.97;;;22.92;100.00
21658;BME280;10990;48.174;9.782;2022-09-03T12:55:12;94406.75;;;22.67;100.00
21658;BME280;10990;48.174;9.782;2022-09-03T12:57:46;94391.06;;;22.64;100.00
21658;BME280;10990;48.174;9.782;2022-09-03T13:00:16;94390.22;;;22.58;100.00
21658;BME280;10990;48.174;9.782;2022-09-03T13:02:49;94365.28;;;22.73;100.00
21658;BME280;10990;48.174;9.782;2022-09-03T13:05:19;94427.50;;;22.72;100.00
21658;BME280;10990;48.174;9.782;2022-09-03T13:07:50;94399.66;;;22.93;100.00
21658;BME280;10990;48.174;9.782;2022-09-03T13:10:25;94343.16;;;22.71;100.00
21658;BME280;10990;48.174;9.782;2022-09-03T13:12:58;94348.59;;;22.76;100.00
21658;BME280;10990;48.174;9.782;2022-09-03T13:15:27;94346.81;;;22.92;100.00
21658;BME280;10990;48.174;9.782;2022-09-03T13:18:11;94317.69;;;22.57;100.00
21658;BME280;10990;48.174;9.782;2022-09-03T13:20:50;94323.72;;;22.64;100.00